»·PEaware :: FFT3122 KLAS-KPHX

FFT3122 :: KLAS-KPHX

FLIGHT INFORMATION

Flight Status: Arrived
Operator:
Frontier Airlines
More flights by this operator :: More flights under this callsign
Pilot: Jesse M. (22378)
Aircraft: AIRBUS A319
(A319)
More flights by this aircraft type
Origin: KLAS McCarran Intl
United States
Destination: KPHX Phoenix Sky Harbor Intl
United States
More flights between these airports :: More routes between these airports
Route: COWBY8 COWBY TENTS BRUSR1
File this flight plan on PilotEdge
Remarks:
Altitude:
(Current/Filed)
29,000ft
Speed:
(Current/Filed)
450kts
Departed: 08-Sep-20 03:26 PM
Arrived: 08-Sep-20 04:15 PM
Distance/Time
Traveled:
222nm/0:49
Distance/Time
To Go:
Arrived

Flight Plot

Page will automatically refresh every two minutes.

Flight plan parsing failed; only flown route is shown


Map Options




Map Legend


Flown Route
Filed Route
Departure Airport
Arrival Airport
Navaid (VOR, NDB)
Fix

Horizontal Profiles

Position Reports

Time Latitude Longitude Heading Altitude Ground
Speed
08-Sep-20 14:55 36.082300 -115.150600 338 2187ft 0kts
08-Sep-20 14:56 36.082300 -115.150600 338 2187ft 0kts
08-Sep-20 14:57 36.082300 -115.150600 338 2187ft 0kts
08-Sep-20 14:58 36.082300 -115.150600 338 2187ft 0kts
08-Sep-20 14:59 36.082300 -115.150600 338 2187ft 0kts
08-Sep-20 15:00 36.082300 -115.150600 338 2187ft 0kts
08-Sep-20 15:01 36.082300 -115.150600 338 2187ft 0kts
08-Sep-20 15:02 36.082300 -115.150600 338 2187ft 0kts
08-Sep-20 15:03 36.082300 -115.150600 338 2187ft 0kts
08-Sep-20 15:04 36.082300 -115.150600 338 2187ft 0kts
08-Sep-20 15:05 36.082300 -115.150600 338 2187ft 0kts
08-Sep-20 15:06 36.082300 -115.150600 338 2187ft 0kts
08-Sep-20 15:07 36.082300 -115.150600 338 2187ft 0kts
08-Sep-20 15:08 36.082300 -115.150600 338 2187ft 0kts
08-Sep-20 15:09 36.082300 -115.150600 338 2187ft 0kts
08-Sep-20 15:10 36.082300 -115.150600 338 2187ft 0kts
08-Sep-20 15:11 36.082300 -115.150600 338 2187ft 0kts
08-Sep-20 15:12 36.082299 -115.150600 338 2187ft 0kts
08-Sep-20 15:13 36.082057 -115.150379 297 2187ft 2kts
08-Sep-20 15:15 36.082117 -115.149853 231 2187ft 0kts
08-Sep-20 15:15 36.082117 -115.149853 231 2187ft 0kts
08-Sep-20 15:16 36.082117 -115.149853 231 2187ft 0kts
08-Sep-20 15:17 36.081280 -115.150872 230 2187ft 9kts
08-Sep-20 15:18 36.081175 -115.153413 283 2187ft 9kts
08-Sep-20 15:19 36.078911 -115.153406 155 2187ft 12kts
08-Sep-20 15:20 36.078042 -115.155860 269 2187ft 12kts
08-Sep-20 15:21 36.078030 -115.160866 270 2187ft 15kts
08-Sep-20 15:22 36.076928 -115.163694 204 2187ft 10kts
08-Sep-20 15:23 36.073968 -115.165459 227 2187ft 8kts
08-Sep-20 15:24 36.074023 -115.166495 296 2187ft 7kts
08-Sep-20 15:25 36.077770 -115.165472 25 2187ft 80kts
08-Sep-20 15:26 36.116628 -115.143979 27 3893ft 176kts
08-Sep-20 15:27 36.136041 -115.083427 80 5891ft 240kts
08-Sep-20 15:28 36.143738 -114.990580 79 8505ft 284kts
08-Sep-20 15:29 36.152952 -114.889537 77 11018ft 321kts
08-Sep-20 15:30 36.169045 -114.768446 70 12396ft 389kts
08-Sep-20 15:31 36.153020 -114.628730 131 14195ft 467kts
08-Sep-20 15:32 36.044526 -114.529931 142 16493ft 494kts
08-Sep-20 15:33 35.991550 -114.379204 93 18960ft 494kts
08-Sep-20 15:34 35.968968 -114.208728 95 21115ft 510kts
08-Sep-20 15:35 35.943043 -114.033762 94 23162ft 520kts
08-Sep-20 15:36 35.910724 -113.857032 103 25001ft 534kts
08-Sep-20 15:37 35.859505 -113.683448 105 26601ft 542kts
08-Sep-20 15:38 35.808210 -113.509727 104 28592ft 534kts
08-Sep-20 15:39 35.757707 -113.337862 105 28936ft 533kts
08-Sep-20 15:40 35.708951 -113.172807 106 28939ft 534kts
08-Sep-20 15:41 35.657718 -113.000988 106 28940ft 536kts
08-Sep-20 15:42 35.604419 -112.823524 107 28957ft 537kts
08-Sep-20 15:43 35.551845 -112.649193 108 28983ft 538kts
08-Sep-20 15:44 35.490306 -112.481861 135 28985ft 538kts
08-Sep-20 15:45 35.357857 -112.423687 180 29001ft 506kts
08-Sep-20 15:46 35.217646 -112.399057 176 29002ft 509kts
08-Sep-20 15:47 35.077757 -112.368774 175 29000ft 509kts
08-Sep-20 15:48 34.937735 -112.338070 176 29004ft 506kts
08-Sep-20 15:49 34.798611 -112.307584 175 28790ft 493kts
08-Sep-20 15:50 34.661828 -112.277534 175 22296ft 494kts
08-Sep-20 15:51 34.528621 -112.248237 175 18797ft 462kts
08-Sep-20 15:52 34.407708 -112.220612 173 18574ft 414kts
08-Sep-20 15:53 34.300950 -112.192541 174 17490ft 375kts
08-Sep-20 15:54 34.200370 -112.166577 174 15977ft 357kts
08-Sep-20 15:55 34.105240 -112.141955 174 14679ft 325kts
08-Sep-20 15:56 34.019872 -112.110171 167 13519ft 314kts
08-Sep-20 15:57 33.937653 -112.076659 167 12179ft 304kts
08-Sep-20 15:58 33.858366 -112.044551 166 10874ft 294kts
08-Sep-20 15:59 33.781722 -112.013517 166 9575ft 284kts
08-Sep-20 16:00 33.705831 -111.982829 165 9018ft 287kts
08-Sep-20 16:01 33.634355 -111.953868 166 8469ft 256kts
08-Sep-20 16:02 33.567397 -111.926876 166 7302ft 249kts
08-Sep-20 16:03 33.526265 -111.871301 92 7049ft 259kts
08-Sep-20 16:04 33.527789 -111.783197 91 7051ft 258kts
08-Sep-20 16:05 33.528976 -111.697291 91 6104ft 253kts
08-Sep-20 16:06 33.518063 -111.616544 144 4391ft 254kts
08-Sep-20 16:07 33.454989 -111.626628 218 4052ft 216kts
08-Sep-20 16:08 33.437562 -111.692999 259 4055ft 203kts
08-Sep-20 16:09 33.428328 -111.759230 260 4065ft 200kts
08-Sep-20 16:10 33.430377 -111.826316 268 3994ft 202kts
08-Sep-20 16:12 33.429070 -111.891264 266 3053ft 174kts
08-Sep-20 16:13 33.429120 -111.940084 266 2168ft 129kts
08-Sep-20 16:14 33.428988 -111.983651 264 1458ft 128kts
08-Sep-20 16:15 33.428871 -112.020094 276 1139ft 35kts
08-Sep-20 16:16 33.429910 -112.024905 277 1139ft 6kts
08-Sep-20 16:17 33.431897 -112.025379 27 1139ft 12kts
08-Sep-20 16:18 33.432141 -112.020562 89 1139ft 16kts
08-Sep-20 16:19 33.432142 -112.015373 88 1139ft 13kts
08-Sep-20 16:20 33.432134 -112.011058 90 1139ft 13kts
08-Sep-20 16:21 33.432139 -112.006684 89 1139ft 14kts
08-Sep-20 16:22 33.434802 -112.004694 359 1139ft 15kts
08-Sep-20 16:23 33.438756 -112.004813 324 1139ft 11kts
08-Sep-20 16:24 33.438391 -112.008166 235 1139ft 5kts

Navigation Log

Ident Type
Flight plan parsing failed, navigation log unavailable